Time,TemperatureF,DewpointF,PressureIn,WindDirection,WindDirectionDegrees,WindSpeedMPH,WindSpeedGustMPH,Humidity,HourlyPrecipIn,Conditions,Clouds,dailyrainin,SoftwareType,DateUTC
2013-02-12 00:01:00,44.0,27.0,30.06,ESE,111,0.0,0.0,50,0.00,,,0.17,,2013-02-12 05:01:00,
2013-02-12 00:11:00,44.0,27.0,30.06,ESE,111,0.0,0.0,50,0.00,,,0.17,,2013-02-12 05:11:00,
2013-02-12 00:21:00,44.0,27.0,30.06,ESE,111,0.0,0.0,50,0.00,,,0.17,,2013-02-12 05:21:00,
2013-02-12 00:32:00,43.0,25.0,30.05,ESE,111,0.0,0.0,49,0.00,,,0.17,,2013-02-12 05:32:00,
2013-02-12 00:42:00,43.0,25.0,30.05,ESE,111,0.0,0.0,49,0.00,,,0.17,,2013-02-12 05:42:00,
2013-02-12 00:52:00,43.0,25.0,30.05,ESE,111,0.0,0.0,48,0.00,,,0.17,,2013-02-12 05:52:00,
2013-02-12 01:02:00,43.0,24.0,30.05,ESE,111,0.0,0.0,46,0.00,,,0.14,,2013-02-12 06:02:00,
2013-02-12 01:12:00,43.0,26.0,30.04,ESE,111,0.0,0.0,51,0.00,,,0.13,,2013-02-12 06:12:00,
2013-02-12 01:22:00,43.0,26.0,30.04,ESE,111,0.0,0.0,51,0.00,,,0.13,,2013-02-12 06:22:00,
2013-02-12 01:32:00,42.0,26.0,30.05,ESE,111,0.0,0.0,52,0.00,,,0.11,,2013-02-12 06:32:00,
2013-02-12 01:42:00,42.0,27.0,30.05,ESE,111,0.0,0.0,55,0.00,,,0.11,,2013-02-12 06:42:00,
2013-02-12 01:52:00,42.0,27.0,30.05,ESE,111,0.0,0.0,55,0.00,,,0.11,,2013-02-12 06:52:00,
2013-02-12 02:02:00,42.0,26.0,30.05,ESE,111,0.0,0.0,53,0.00,,,0.10,,2013-02-12 07:02:00,
2013-02-12 02:11:00,42.0,26.0,30.05,ESE,111,0.0,0.0,53,0.00,,,0.10,,2013-02-12 07:11:00,
2013-02-12 02:21:00,42.0,27.0,30.05,ESE,111,0.0,0.0,54,0.00,,,0.09,,2013-02-12 07:21:00,
2013-02-12 02:32:00,42.0,27.0,30.06,ESE,111,0.0,0.0,56,0.00,,,0.08,,2013-02-12 07:32:00,
2013-02-12 02:42:00,42.0,27.0,30.06,ESE,111,0.0,0.0,56,0.00,,,0.08,,2013-02-12 07:42:00,
2013-02-12 02:51:00,41.0,27.0,30.06,ESE,111,0.0,0.0,56,0.00,,,0.08,,2013-02-12 07:51:00,
2013-02-12 03:01:00,41.0,27.0,30.05,ESE,111,0.0,0.0,56,0.00,,,0.08,,2013-02-12 08:01:00,
2013-02-12 03:11:00,41.0,27.0,30.05,ESE,111,0.0,0.0,56,0.00,,,0.08,,2013-02-12 08:11:00,
2013-02-12 03:21:00,41.0,26.0,30.05,ESE,111,0.0,0.0,54,0.00,,,0.08,,2013-02-12 08:21:00,
2013-02-12 03:32:00,40.0,27.0,30.05,ESE,111,0.0,0.0,59,0.00,,,0.08,,2013-02-12 08:32:00,
2013-02-12 03:42:00,40.0,27.0,30.05,ESE,111,0.0,0.0,59,0.00,,,0.08,,2013-02-12 08:42:00,
2013-02-12 03:52:00,39.0,26.0,30.04,ESE,111,0.0,0.0,59,0.00,,,0.07,,2013-02-12 08:52:00,
2013-02-12 04:02:00,40.0,25.0,30.05,ESE,111,0.0,0.0,55,0.00,,,0.06,,2013-02-12 09:02:00,
2013-02-12 04:11:00,40.0,25.0,30.05,ESE,111,0.0,0.0,55,0.00,,,0.06,,2013-02-12 09:11:00,
2013-02-12 04:21:00,40.0,26.0,30.05,ESE,111,0.0,0.0,57,0.00,,,0.05,,2013-02-12 09:21:00,
2013-02-12 04:32:00,40.0,28.0,30.05,ESE,111,0.0,0.0,61,0.00,,,0.04,,2013-02-12 09:32:00,
2013-02-12 04:42:00,39.0,27.0,30.06,ESE,111,0.0,0.0,62,0.00,,,0.03,,2013-02-12 09:42:00,
2013-02-12 04:51:00,39.0,27.0,30.06,ESE,111,0.0,0.0,62,0.00,,,0.03,,2013-02-12 09:51:00,
2013-02-12 05:01:00,38.0,28.0,30.03,ESE,111,0.0,0.0,67,0.00,,,0.02,,2013-02-12 10:01:00,
2013-02-12 05:11:00,38.0,28.0,30.06,ESE,111,0.0,0.0,68,0.00,,,0.02,,2013-02-12 10:11:00,
2013-02-12 05:21:00,38.0,28.0,30.06,ESE,111,0.0,0.0,68,0.00,,,0.02,,2013-02-12 10:21:00,
2013-02-12 05:32:00,39.0,27.0,30.04,ESE,111,0.0,0.0,61,0.00,,,0.02,,2013-02-12 10:32:00,
2013-02-12 05:43:00,39.0,27.0,30.04,ESE,111,0.0,0.0,61,0.00,,,0.02,,2013-02-12 10:43:00,
2013-02-12 05:51:00,38.0,27.0,30.04,ESE,111,0.0,0.0,65,0.00,,,0.02,,2013-02-12 10:51:00,
2013-02-12 06:01:00,37.0,25.0,30.05,ESE,111,0.0,0.0,62,0.00,,,0.01,,2013-02-12 11:01:00,
2013-02-12 06:11:00,37.0,25.0,30.05,ESE,111,0.0,0.0,62,0.00,,,0.01,,2013-02-12 11:11:00,
2013-02-12 06:22:00,38.0,24.0,30.05,ESE,111,0.0,0.0,57,0.00,,,0.01,,2013-02-12 11:22:00,
2013-02-12 06:32:00,39.0,24.0,30.05,ESE,111,0.0,0.0,55,0.00,,,0.01,,2013-02-12 11:32:00,
2013-02-12 06:42:00,39.0,24.0,30.05,ESE,111,0.0,0.0,55,0.00,,,0.01,,2013-02-12 11:42:00,
2013-02-12 06:52:00,40.0,27.0,30.04,ESE,111,0.0,0.0,59,0.00,,,0.01,,2013-02-12 11:52:00,
2013-02-12 07:02:00,38.0,27.0,30.06,ESE,111,0.0,0.0,65,0.00,,,0.01,,2013-02-12 12:02:00,
2013-02-12 07:11:00,37.0,27.0,30.07,ESE,111,0.0,0.0,66,0.00,,,0.01,,2013-02-12 12:11:00,
2013-02-12 07:21:00,37.0,27.0,30.07,ESE,111,0.0,0.0,66,0.00,,,0.01,,2013-02-12 12:21:00,
2013-02-12 07:32:00,37.0,26.0,30.08,ESE,111,0.0,0.0,63,0.00,,,0.01,,2013-02-12 12:32:00,
2013-02-12 07:42:00,37.0,26.0,30.08,ESE,111,0.0,0.0,63,0.00,,,0.01,,2013-02-12 12:42:00,
2013-02-12 07:52:00,37.0,25.0,30.08,ESE,111,0.0,0.0,61,0.00,,,0.01,,2013-02-12 12:52:00,
2013-02-12 08:02:00,37.0,24.0,30.08,ESE,111,0.0,0.0,60,0.00,,,0.01,,2013-02-12 13:02:00,
2013-02-12 08:11:00,37.0,24.0,30.09,North,355,0.0,0.0,60,0.00,,,0.01,,2013-02-12 13:11:00,
2013-02-12 08:22:00,37.0,24.0,30.09,North,355,0.0,0.0,60,0.00,,,0.01,,2013-02-12 13:22:00,
2013-02-12 08:32:00,38.0,25.0,30.09,North,355,0.0,0.0,58,0.00,,,0.01,,2013-02-12 13:32:00,
2013-02-12 08:42:00,38.0,25.0,30.09,North,355,0.0,0.0,58,0.00,,,0.01,,2013-02-12 13:42:00,
2013-02-12 08:52:00,38.0,25.0,30.09,North,355,0.0,0.0,58,0.00,,,0.01,,2013-02-12 13:52:00,
2013-02-12 09:01:00,38.0,30.0,30.10,North,355,0.0,0.0,72,0.00,,,0.01,,2013-02-12 14:01:00,
2013-02-12 09:12:00,38.0,30.0,30.10,North,355,0.0,0.0,72,0.00,,,0.01,,2013-02-12 14:12:00,
2013-02-12 09:22:00,39.0,27.0,30.09,North,355,0.0,0.0,62,0.00,,,0.01,,2013-02-12 14:22:00,
2013-02-12 09:32:00,41.0,30.0,30.09,ESE,123,0.0,1.0,64,0.00,,,0.01,,2013-02-12 14:32:00,
2013-02-12 09:42:00,41.0,30.0,30.09,ESE,123,0.0,1.0,64,0.00,,,0.01,,2013-02-12 14:42:00,
2013-02-12 09:52:00,41.0,30.0,30.09,ESE,123,0.0,1.0,64,0.00,,,0.01,,2013-02-12 14:52:00,
2013-02-12 10:02:00,42.0,29.0,30.08,ESE,112,0.0,0.0,59,0.00,,,0.00,,2013-02-12 15:02:00,
2013-02-12 10:11:00,44.0,30.0,30.08,SSE,167,0.0,0.0,57,0.00,,,0.00,,2013-02-12 15:11:00,
2013-02-12 10:21:00,44.0,30.0,30.08,SSE,167,0.0,0.0,57,0.00,,,0.00,,2013-02-12 15:21:00,
2013-02-12 10:32:00,44.0,31.0,30.06,SSE,168,0.0,0.0,59,0.00,,,0.00,,2013-02-12 15:32:00,
2013-02-12 10:42:00,44.0,31.0,30.06,SSE,168,0.0,0.0,59,0.00,,,0.00,,2013-02-12 15:42:00,
2013-02-12 10:52:00,44.0,25.0,30.07,SSW,197,0.0,1.0,46,0.00,,,0.00,,2013-02-12 15:52:00,
2013-02-12 11:01:00,47.0,28.0,30.05,SSE,161,0.0,3.0,48,0.00,,,0.00,,2013-02-12 16:01:00,
2013-02-12 11:11:00,47.0,28.0,30.05,SSE,161,0.0,3.0,48,0.00,,,0.00,,2013-02-12 16:11:00,
2013-02-12 11:22:00,49.0,31.0,30.05,South,173,2.0,4.0,50,0.00,,,0.00,,2013-02-12 16:22:00,
2013-02-12 11:32:00,49.0,30.0,30.06,East,98,2.0,2.0,47,0.00,,,0.00,,2013-02-12 16:32:00,
2013-02-12 11:42:00,49.0,30.0,30.06,East,98,2.0,2.0,47,0.00,,,0.00,,2013-02-12 16:42:00,
2013-02-12 11:52:00,50.0,31.0,30.05,ESE,105,0.0,3.0,48,0.00,,,0.00,,2013-02-12 16:52:00,
2013-02-12 12:01:00,49.0,29.0,30.05,SSE,161,0.0,0.0,45,0.00,,,0.00,,2013-02-12 17:01:00,
2013-02-12 12:12:00,49.0,29.0,30.05,SSE,161,0.0,0.0,45,0.00,,,0.00,,2013-02-12 17:12:00,
2013-02-12 12:21:00,49.0,28.0,30.06,SSE,162,0.0,1.0,44,0.00,,,0.00,,2013-02-12 17:21:00,
2013-02-12 12:32:00,49.0,29.0,30.06,SE,136,0.0,0.0,45,0.00,,,0.00,,2013-02-12 17:32:00,
2013-02-12 12:42:00,49.0,29.0,30.06,SE,136,0.0,0.0,45,0.00,,,0.00,,2013-02-12 17:42:00,
2013-02-12 12:52:00,48.0,27.0,30.06,SSE,147,0.0,0.0,43,0.00,,,0.00,,2013-02-12 17:52:00,
2013-02-12 13:02:00,50.0,30.0,30.04,SSE,147,0.0,0.0,46,0.00,,,0.00,,2013-02-12 18:02:00,
2013-02-12 13:11:00,50.0,28.0,30.03,SE,124,0.0,0.0,43,0.00,,,0.00,,2013-02-12 18:11:00,
2013-02-12 13:23:00,50.0,28.0,30.03,SE,124,0.0,0.0,43,0.00,,,0.00,,2013-02-12 18:23:00,
2013-02-12 13:32:00,51.0,29.0,30.02,ESE,115,0.0,0.0,42,0.00,,,0.00,,2013-02-12 18:32:00,
2013-02-12 13:41:00,51.0,29.0,30.02,ESE,115,0.0,0.0,42,0.00,,,0.00,,2013-02-12 18:41:00,
2013-02-12 13:51:00,51.0,28.0,30.03,SSE,150,0.0,0.0,41,0.00,,,0.00,,2013-02-12 18:51:00,
2013-02-12 14:02:00,51.0,28.0,30.03,South,174,0.0,0.0,41,0.00,,,0.00,,2013-02-12 19:02:00,
2013-02-12 14:11:00,51.0,28.0,30.03,South,174,0.0,0.0,41,0.00,,,0.00,,2013-02-12 19:11:00,
2013-02-12 14:21:00,50.0,27.0,30.01,SSE,147,0.0,0.0,40,0.00,,,0.00,,2013-02-12 19:21:00,
2013-02-12 14:32:00,50.0,26.0,30.00,SSE,147,0.0,1.0,39,0.00,,,0.00,,2013-02-12 19:32:00,
2013-02-12 14:42:00,50.0,27.0,30.00,South,181,0.0,0.0,40,0.00,,,0.00,,2013-02-12 19:42:00,
2013-02-12 14:51:00,50.0,27.0,30.00,South,181,0.0,0.0,40,0.00,,,0.00,,2013-02-12 19:51:00,
2013-02-12 15:01:00,50.0,29.0,30.01,South,181,0.0,0.0,45,0.00,,,0.00,,2013-02-12 20:01:00,
2013-02-12 15:11:00,50.0,29.0,30.01,South,181,0.0,0.0,45,0.00,,,0.00,,2013-02-12 20:11:00,
2013-02-12 15:21:00,50.0,29.0,30.01,SE,138,0.0,0.0,44,0.00,,,0.00,,2013-02-12 20:21:00,
2013-02-12 15:32:00,50.0,29.0,30.01,SSW,198,0.0,1.0,44,0.00,,,0.00,,2013-02-12 20:32:00,
2013-02-12 15:41:00,50.0,29.0,30.01,SSW,198,0.0,1.0,44,0.00,,,0.00,,2013-02-12 20:41:00,
2013-02-12 15:52:00,50.0,29.0,30.01,SSW,198,0.0,0.0,45,0.00,,,0.00,,2013-02-12 20:52:00,
2013-02-12 16:02:00,49.0,31.0,30.01,SSW,198,0.0,0.0,49,0.00,,,0.00,,2013-02-12 21:02:00,
2013-02-12 16:11:00,49.0,31.0,30.01,SSW,198,0.0,0.0,49,0.00,,,0.00,,2013-02-12 21:11:00,
2013-02-12 16:21:00,49.0,31.0,30.01,SSW,198,0.0,0.0,50,0.00,,,0.00,,2013-02-12 21:21:00,
2013-02-12 16:32:00,49.0,35.0,29.98,SSW,198,0.0,0.0,58,0.00,,,0.00,,2013-02-12 21:32:00,
2013-02-12 16:42:00,49.0,33.0,29.98,SSW,198,0.0,0.0,54,0.00,,,0.00,,2013-02-12 21:42:00,
2013-02-12 16:51:00,49.0,33.0,29.98,SSW,198,0.0,0.0,54,0.00,,,0.00,,2013-02-12 21:51:00,
2013-02-12 17:01:00,49.0,27.0,29.97,SSW,198,0.0,0.0,43,0.00,,,0.00,,2013-02-12 22:01:00,
2013-02-12 17:12:00,49.0,27.0,29.97,SSW,198,0.0,0.0,43,0.00,,,0.00,,2013-02-12 22:12:00,
2013-02-12 17:21:00,49.0,27.0,29.98,SSW,198,0.0,0.0,42,0.00,,,0.00,,2013-02-12 22:21:00,
2013-02-12 17:32:00,48.0,30.0,29.95,SSW,198,0.0,0.0,50,0.00,,,0.00,,2013-02-12 22:32:00,
2013-02-12 17:42:00,48.0,30.0,29.95,SSW,198,0.0,0.0,50,0.00,,,0.00,,2013-02-12 22:42:00,
2013-02-12 17:51:00,48.0,28.0,29.93,SSW,198,0.0,0.0,46,0.00,,,0.00,,2013-02-12 22:51:00,
2013-02-12 18:01:00,48.0,23.0,29.92,SSW,198,0.0,0.0,37,0.00,,,0.00,,2013-02-12 23:01:00,
2013-02-12 18:11:00,48.0,26.0,29.93,SSW,198,0.0,0.0,42,0.00,,,0.00,,2013-02-12 23:11:00,
2013-02-12 18:21:00,48.0,26.0,29.93,SSW,198,0.0,0.0,42,0.00,,,0.00,,2013-02-12 23:21:00,
2013-02-12 18:32:00,47.0,27.0,29.94,SSW,198,0.0,0.0,45,0.00,,,0.00,,2013-02-12 23:32:00,
2013-02-12 18:42:00,47.0,27.0,29.94,SSW,198,0.0,0.0,45,0.00,,,0.00,,2013-02-12 23:42:00,
2013-02-12 18:52:00,46.0,28.0,29.95,SSW,198,0.0,0.0,50,0.01,,,0.01,,2013-02-12 23:52:00,
2013-02-12 19:02:00,43.0,34.0,29.96,SSW,198,0.0,0.0,70,0.03,,,0.02,,2013-02-13 00:02:00,
2013-02-12 19:11:00,43.0,34.0,29.96,SSW,198,0.0,0.0,70,0.03,,,0.02,,2013-02-13 00:11:00,
2013-02-12 19:21:00,43.0,34.0,29.96,SSW,198,0.0,0.0,70,0.03,,,0.02,,2013-02-13 00:21:00,
2013-02-12 19:32:00,40.0,35.0,29.97,SSW,198,0.0,0.0,83,0.06,,,0.06,,2013-02-13 00:32:00,
2013-02-12 19:42:00,40.0,35.0,29.97,SSW,198,0.0,0.0,83,0.06,,,0.06,,2013-02-13 00:42:00,
2013-02-12 19:52:00,40.0,36.0,29.98,SSW,198,0.0,0.0,85,0.05,,,0.06,,2013-02-13 00:52:00,
2013-02-12 20:01:00,40.0,36.0,29.96,SSW,198,0.0,0.0,86,0.07,,,0.09,,2013-02-13 01:01:00,
2013-02-12 20:11:00,40.0,36.0,29.96,SSW,198,0.0,0.0,86,0.07,,,0.09,,2013-02-13 01:11:00,
2013-02-12 20:21:00,39.0,35.0,29.95,SSW,198,0.0,0.0,87,0.08,,,0.11,,2013-02-13 01:21:00,
2013-02-12 20:32:00,40.0,37.0,29.96,SSW,198,0.0,0.0,89,0.06,,,0.11,,2013-02-13 01:32:00,
2013-02-12 20:42:00,40.0,37.0,29.96,SSW,198,0.0,0.0,89,0.06,,,0.11,,2013-02-13 01:42:00,
2013-02-12 20:51:00,40.0,37.0,29.95,SSW,198,0.0,0.0,88,0.06,,,0.12,,2013-02-13 01:51:00,
2013-02-12 21:01:00,40.0,37.0,29.94,SSW,198,0.0,0.0,89,0.04,,,0.12,,2013-02-13 02:01:00,
2013-02-12 21:11:00,40.0,37.0,29.94,SSW,198,0.0,0.0,89,0.04,,,0.12,,2013-02-13 02:11:00,
2013-02-12 21:22:00,39.0,36.0,29.95,SSW,198,0.0,0.0,90,0.03,,,0.13,,2013-02-13 02:22:00,
2013-02-12 21:32:00,39.0,37.0,29.95,SSW,198,0.0,0.0,91,0.02,,,0.13,,2013-02-13 02:32:00,
2013-02-12 21:42:00,39.0,37.0,29.95,SSW,198,0.0,0.0,91,0.02,,,0.13,,2013-02-13 02:42:00,
2013-02-12 21:52:00,39.0,37.0,29.95,SSW,198,0.0,0.0,91,0.01,,,0.13,,2013-02-13 02:52:00,
2013-02-12 22:01:00,40.0,38.0,29.94,SSW,198,0.0,0.0,91,0.02,,,0.14,,2013-02-13 03:01:00,
2013-02-12 22:11:00,39.0,36.0,29.94,SSW,198,0.0,0.0,90,0.02,,,0.15,,2013-02-13 03:11:00,
2013-02-12 22:21:00,39.0,36.0,29.94,SSW,198,0.0,0.0,90,0.02,,,0.15,,2013-02-13 03:21:00,
2013-02-12 22:32:00,39.0,37.0,29.93,SSW,198,0.0,0.0,91,0.02,,,0.15,,2013-02-13 03:32:00,
2013-02-12 22:42:00,39.0,37.0,29.93,SSW,198,0.0,0.0,91,0.02,,,0.15,,2013-02-13 03:42:00,
2013-02-12 22:51:00,40.0,38.0,29.91,SSW,198,0.0,0.0,91,0.02,,,0.15,,2013-02-13 03:51:00,
2013-02-12 23:01:00,40.0,38.0,29.89,SSW,198,0.0,0.0,91,0.03,,,0.16,,2013-02-13 04:01:00,
2013-02-12 23:11:00,40.0,38.0,29.89,SSW,198,0.0,0.0,91,0.03,,,0.16,,2013-02-13 04:11:00,
2013-02-12 23:21:00,40.0,38.0,29.88,SSW,198,0.0,0.0,92,0.01,,,0.16,,2013-02-13 04:21:00,
2013-02-12 23:32:00,39.0,37.0,29.92,SSW,198,0.0,0.0,92,0.03,,,0.18,,2013-02-13 04:32:00,
2013-02-12 23:42:00,39.0,37.0,29.92,SSW,198,0.0,0.0,92,0.03,,,0.18,,2013-02-13 04:42:00,
2013-02-12 23:51:00,39.0,37.0,29.91,SSW,198,0.0,0.0,92,0.08,,,0.23,,2013-02-13 04:51:00,